Time;durP1;ratioP1;P1;durP2;ratioP2;P2;SDS_P1;SDS_P2;PMS_P1;PMS_P2;Temp;Humidity;BMP_temperature;BMP_pressure;BME280_temperature;BME280_humidity;BME280_pressure;Samples;Min_cycle;Max_cycle;Signal;HPM_P1;HPM_P2
2021/05/20 00:01:23;;;;;;;2.45;2.00;;;12.90;99.90;;;;;;5053687;28;20110;-74
2021/05/20 00:03:49;;;;;;;2.63;1.90;;;13.00;99.90;;;;;;5055537;28;20032;-72
2021/05/20 00:06:15;;;;;;;3.05;2.22;;;12.80;99.90;;;;;;5055525;28;20029;-71
2021/05/20 00:08:41;;;;;;;4.13;2.53;;;12.90;99.90;;;;;;5054186;28;20021;-74
2021/05/20 00:11:07;;;;;;;3.28;2.10;;;12.80;99.90;;;;;;5053423;28;20029;-70
2021/05/20 00:13:33;;;;;;;5.13;2.28;;;12.70;99.90;;;;;;5055587;28;20467;-74
2021/05/20 00:15:59;;;;;;;3.20;2.00;;;12.80;99.90;;;;;;5055504;28;20021;-74
2021/05/20 00:18:25;;;;;;;2.55;1.88;;;12.80;99.90;;;;;;5055380;28;20021;-71
2021/05/20 00:20:51;;;;;;;4.78;2.00;;;12.70;99.90;;;;;;5055055;28;20100;-73
2021/05/20 00:23:17;;;;;;;2.60;2.20;;;12.60;99.90;;;;;;5055058;28;20040;-74
2021/05/20 00:25:43;;;;;;;3.20;1.98;;;12.70;99.90;;;;;;5054505;28;20382;-75
2021/05/20 00:28:09;;;;;;;2.40;2.00;;;12.70;99.90;;;;;;5054752;28;20125;-71
2021/05/20 00:30:35;;;;;;;5.10;2.10;;;12.80;99.90;;;;;;5055021;28;20486;-74
2021/05/20 00:33:01;;;;;;;4.05;1.95;;;12.60;99.90;;;;;;5054352;28;20071;-72
2021/05/20 00:35:26;;;;;;;2.20;1.83;;;12.50;99.90;;;;;;5054916;28;20056;-71
2021/05/20 00:37:52;;;;;;;3.10;1.88;;;12.60;99.90;;;;;;5054772;28;20021;-73
2021/05/20 00:40:18;;;;;;;2.85;2.00;;;12.50;99.90;;;;;;5052800;28;20021;-70
2021/05/20 00:42:48;;;;;;;2.45;1.90;;;12.50;99.90;;;;;;5054286;28;20028;-75
2021/05/20 00:45:14;;;;;;;2.40;2.00;;;12.40;99.90;;;;;;5054725;28;20104;-74
2021/05/20 00:47:40;;;;;;;4.32;2.00;;;12.30;99.90;;;;;;5053329;28;20471;-72
2021/05/20 00:50:09;;;;;;;2.90;1.90;;;12.50;99.90;;;;;;5054679;28;20052;-71
2021/05/20 00:52:35;;;;;;;2.03;1.70;;;12.40;99.90;;;;;;5054252;28;20360;-75
2021/05/20 00:55:05;;;;;;;3.20;1.88;;;12.40;99.90;;;;;;5054433;28;20021;-74
2021/05/20 00:57:31;;;;;;;2.70;2.17;;;12.50;99.90;;;;;;5054392;28;20036;-74
2021/05/20 01:00:05;;;;;;;2.63;2.08;;;12.40;99.90;;;;;;5054279;28;20029;-70
2021/05/20 01:02:31;;;;;;;3.78;2.28;;;12.40;99.90;;;;;;5054583;28;20029;-73
2021/05/20 01:04:57;;;;;;;2.42;1.90;;;12.50;99.90;;;;;;5053051;28;20078;-72
2021/05/20 01:07:23;;;;;;;3.10;2.40;;;12.60;99.90;;;;;;5054311;28;20017;-75
2021/05/20 01:09:49;;;;;;;3.70;2.28;;;12.50;99.90;;;;;;5054298;28;20013;-73
2021/05/20 01:12:16;;;;;;;3.67;3.10;;;12.60;99.90;;;;;;5054420;28;20059;-74
2021/05/20 01:14:44;;;;;;;3.70;3.25;;;12.50;99.90;;;;;;5054429;28;20367;-74
2021/05/20 01:17:11;;;;;;;4.22;3.70;;;12.40;99.90;;;;;;5054122;28;20029;-71
2021/05/20 01:19:45;;;;;;;4.32;3.72;;;12.40;99.90;;;;;;5054073;28;20028;-75
2021/05/20 01:22:12;;;;;;;6.15;4.65;;;12.50;99.90;;;;;;5054206;28;20441;-73
2021/05/20 01:24:39;;;;;;;4.60;3.80;;;12.50;99.90;;;;;;5053877;28;20029;-73
2021/05/20 01:27:08;;;;;;;6.03;5.13;;;12.50;99.90;;;;;;5052673;28;20025;-74
2021/05/20 01:29:34;;;;;;;6.00;5.22;;;12.40;99.90;;;;;;5053582;28;20056;-73
2021/05/20 01:32:03;;;;;;;6.20;4.93;;;12.20;99.90;;;;;;5052219;28;20078;-74
2021/05/20 01:34:32;;;;;;;6.50;5.40;;;12.30;99.90;;;;;;5054077;28;20021;-72
2021/05/20 01:36:59;;;;;;;6.15;5.05;;;12.30;99.90;;;;;;5053719;28;20021;-71
2021/05/20 01:39:25;;;;;;;6.45;5.38;;;12.30;99.90;;;;;;5053676;28;20057;-73
2021/05/20 01:41:51;;;;;;;6.18;4.90;;;12.30;99.90;;;;;;5053982;28;20095;-73
2021/05/20 01:44:19;;;;;;;7.10;5.35;;;12.30;99.90;;;;;;5053233;28;20110;-73
2021/05/20 01:46:46;;;;;;;6.78;5.60;;;12.30;99.90;;;;;;5053690;28;20021;-74
2021/05/20 01:49:12;;;;;;;6.15;5.55;;;12.20;99.90;;;;;;5053612;28;20112;-73
2021/05/20 01:51:39;;;;;;;7.00;5.97;;;12.20;99.90;;;;;;5053619;28;20110;-73
2021/05/20 01:54:06;;;;;;;6.65;5.60;;;12.20;99.90;;;;;;5053524;28;20044;-73
2021/05/20 01:56:40;;;;;;;7.65;5.55;;;12.30;99.90;;;;;;5053553;28;20047;-75
2021/05/20 01:59:07;;;;;;;9.43;6.05;;;12.30;99.90;;;;;;5053651;28;20029;-75
2021/05/20 02:01:36;;;;;;;7.88;6.57;;;12.20;99.90;;;;;;5053396;28;20033;-74
2021/05/20 02:04:03;;;;;;;7.10;5.60;;;12.20;99.90;;;;;;5053313;28;20039;-75
2021/05/20 02:06:29;;;;;;;7.07;5.22;;;12.10;99.90;;;;;;5053554;28;20472;-74
2021/05/20 02:08:55;;;;;;;6.63;5.43;;;12.20;99.90;;;;;;5053574;28;20031;-72
2021/05/20 02:11:21;;;;;;;7.78;5.22;;;12.30;99.90;;;;;;5053368;28;20029;-74
2021/05/20 02:13:47;;;;;;;8.00;5.90;;;12.20;99.90;;;;;;5053396;28;20487;-73
2021/05/20 02:16:12;;;;;;;8.48;5.50;;;12.20;99.90;;;;;;5053225;28;20360;-72
2021/05/20 02:18:38;;;;;;;7.45;5.38;;;12.20;99.90;;;;;;5053307;28;20025;-71
2021/05/20 02:21:05;;;;;;;5.93;5.30;;;12.30;99.90;;;;;;5053397;28;20497;-73
2021/05/20 02:23:31;;;;;;;7.03;5.32;;;12.20;99.90;;;;;;5053120;28;20074;-71
2021/05/20 02:25:58;;;;;;;6.10;4.97;;;12.20;99.90;;;;;;5053255;28;20021;-73
2021/05/20 02:28:24;;;;;;;5.70;5.05;;;12.20;99.90;;;;;;5052758;28;20037;-71
2021/05/20 02:30:50;;;;;;;10.55;5.60;;;12.10;99.90;;;;;;5053180;28;20478;-74
2021/05/20 02:33:16;;;;;;;7.30;5.55;;;11.90;99.90;;;;;;5053188;28;20025;-73
2021/05/20 02:35:43;;;;;;;5.60;4.70;;;12.00;99.90;;;;;;5053414;28;20037;-71
2021/05/20 02:38:09;;;;;;;6.30;4.80;;;12.00;99.90;;;;;;5053244;28;20028;-71
2021/05/20 02:40:35;;;;;;;6.93;4.70;;;12.10;99.90;;;;;;5053173;28;20351;-72
2021/05/20 02:43:02;;;;;;;6.53;5.22;;;;;;;;;;5053207;28;20473;-71
2021/05/20 02:45:28;;;;;;;6.72;4.95;;;11.90;99.90;;;;;;5053058;28;20057;-73
2021/05/20 02:47:55;;;;;;;7.38;4.35;;;11.90;99.90;;;;;;5053183;28;20029;-71
2021/05/20 02:50:25;;;;;;;6.45;4.28;;;11.90;99.90;;;;;;5052901;28;20021;-74
2021/05/20 02:52:51;;;;;;;5.25;4.05;;;11.90;99.90;;;;;;5051495;28;20025;-74
2021/05/20 02:55:20;;;;;;;4.22;3.83;;;11.90;99.90;;;;;;5053062;28;20029;-71
2021/05/20 02:57:58;;;;;;;4.50;3.90;;;11.90;99.90;;;;;;5056890;28;20340;-73
2021/05/20 03:00:33;;;;;;;5.00;3.40;;;11.90;99.90;;;;;;5056709;28;20021;-73
2021/05/20 03:03:00;;;;;;;5.90;3.67;;;11.80;99.90;;;;;;5056700;28;20017;-74
2021/05/20 03:05:26;;;;;;;4.40;3.78;;;11.80;99.90;;;;;;5056521;28;20374;-73
2021/05/20 03:07:56;;;;;;;4.50;3.85;;;11.90;99.90;;;;;;5056497;28;20024;-74
2021/05/20 03:10:22;;;;;;;4.10;3.42;;;11.80;99.90;;;;;;5056586;28;20017;-74
2021/05/20 03:12:48;;;;;;;4.78;3.72;;;11.80;99.90;;;;;;5056580;28;20378;-73
2021/05/20 03:15:14;;;;;;;6.32;3.75;;;11.80;99.90;;;;;;5056542;28;20021;-73
2021/05/20 03:17:40;;;;;;;4.15;3.75;;;11.90;99.90;;;;;;5056309;28;20028;-73
2021/05/20 03:20:07;;;;;;;5.05;3.60;;;11.90;99.90;;;;;;5056386;28;20493;-71
2021/05/20 03:22:34;;;;;;;5.60;3.30;;;11.90;99.90;;;;;;5056305;28;20367;-74
2021/05/20 03:25:00;;;;;;;4.80;3.15;;;11.90;99.90;;;;;;5056384;28;20366;-73
2021/05/20 03:27:26;;;;;;;5.78;3.85;;;11.80;99.90;;;;;;5055869;28;20021;-70
2021/05/20 03:29:52;;;;;;;3.50;2.90;;;11.90;99.90;;;;;;5056285;28;20036;-74
2021/05/20 03:32:18;;;;;;;4.22;3.13;;;11.80;99.90;;;;;;5056075;28;20036;-71
2021/05/20 03:34:44;;;;;;;5.00;4.00;;;11.60;99.90;;;;;;5056064;28;20032;-73
2021/05/20 03:37:10;;;;;;;3.45;2.80;;;11.70;99.90;;;;;;5056172;28;20112;-74
2021/05/20 03:39:35;;;;;;;3.55;2.92;;;11.50;99.90;;;;;;5054515;28;20017;-73
2021/05/20 03:42:03;;;;;;;3.90;2.80;;;11.60;99.90;;;;;;5055688;28;20051;-73
2021/05/20 03:44:30;;;;;;;3.95;2.90;;;11.60;99.90;;;;;;5056218;28;20470;-72
2021/05/20 03:46:56;;;;;;;3.58;2.65;;;11.70;99.90;;;;;;5056109;28;20021;-71
2021/05/20 03:49:22;;;;;;;3.58;2.45;;;11.50;99.90;;;;;;5055677;28;20024;-71
2021/05/20 03:51:48;;;;;;;4.70;3.40;;;11.50;99.90;;;;;;5055700;28;20029;-72
2021/05/20 03:54:14;;;;;;;4.63;3.65;;;11.50;99.90;;;;;;5055721;28;20394;-71
2021/05/20 03:56:40;;;;;;;7.88;3.50;;;11.40;99.90;;;;;;5054361;28;20024;-74
2021/05/20 03:59:05;;;;;;;3.90;3.00;;;11.40;99.90;;;;;;5055556;28;20025;-71
2021/05/20 04:01:31;;;;;;;4.05;2.45;;;11.30;99.90;;;;;;5055793;28;20363;-74
2021/05/20 04:03:57;;;;;;;5.70;3.20;;;11.40;99.90;;;;;;5055325;28;20021;-73
2021/05/20 04:06:23;;;;;;;3.13;2.42;;;11.30;99.90;;;;;;5055575;28;20151;-73
2021/05/20 04:08:49;;;;;;;3.55;2.30;;;11.50;99.90;;;;;;5054570;28;20052;-71
2021/05/20 04:11:15;;;;;;;5.00;2.85;;;11.30;99.90;;;;;;5055553;28;20083;-74
2021/05/20 04:13:43;;;;;;;6.50;2.95;;;11.30;99.90;;;;;;5053917;28;20028;-73
2021/05/20 04:16:11;;;;;;;5.05;2.17;;;11.40;99.90;;;;;;5054137;28;20032;-74
2021/05/20 04:18:38;;;;;;;4.13;2.42;;;11.50;99.90;;;;;;5055300;28;20029;-73
2021/05/20 04:21:04;;;;;;;3.97;2.20;;;11.40;99.90;;;;;;5055336;28;20024;-71
2021/05/20 04:23:30;;;;;;;2.88;2.20;;;11.40;99.90;;;;;;5055337;28;20098;-74
2021/05/20 04:25:56;;;;;;;3.30;2.17;;;11.40;99.90;;;;;;5054902;28;20052;-73
2021/05/20 04:28:22;;;;;;;4.10;2.10;;;11.40;99.90;;;;;;5053548;28;20064;-74
2021/05/20 04:30:49;;;;;;;3.05;2.13;;;11.40;99.90;;;;;;5055177;28;20033;-71
2021/05/20 04:33:15;;;;;;;3.05;2.05;;;11.50;99.90;;;;;;5053768;28;20074;-73
2021/05/20 04:35:42;;;;;;;3.97;2.17;;;11.40;99.90;;;;;;5055084;28;20420;-71
2021/05/20 04:38:09;;;;;;;3.25;2.28;;;11.50;99.90;;;;;;5054637;28;20082;-73
2021/05/20 04:40:38;;;;;;;2.53;1.83;;;11.50;99.90;;;;;;5054736;28;20032;-74
2021/05/20 04:43:04;;;;;;;4.55;2.40;;;11.50;99.90;;;;;;5054842;28;20044;-71
2021/05/20 04:45:30;;;;;;;3.38;2.20;;;11.60;99.90;;;;;;5054780;28;20074;-73
2021/05/20 04:47:56;;;;;;;2.97;2.10;;;11.60;99.90;;;;;;5054867;28;20021;-74
2021/05/20 04:50:22;;;;;;;3.53;2.15;;;11.60;99.90;;;;;;5054464;28;20024;-74
2021/05/20 04:52:48;;;;;;;3.50;2.10;;;11.60;99.90;;;;;;5053332;28;20486;-73
2021/05/20 04:55:16;;;;;;;3.83;1.90;;;11.70;99.90;;;;;;5053010;28;20078;-72
2021/05/20 04:57:42;;;;;;;4.03;2.15;;;11.60;99.90;;;;;;5054434;28;20055;-73
2021/05/20 05:00:10;;;;;;;2.50;1.92;;;11.70;99.90;;;;;;5054230;28;20063;-71
2021/05/20 05:02:36;;;;;;;3.47;2.17;;;11.70;99.90;;;;;;5054455;28;20363;-73
2021/05/20 05:05:03;;;;;;;1.83;1.60;;;11.70;99.90;;;;;;5051570;28;20386;-71
2021/05/20 05:07:29;;;;;;;3.33;1.83;;;11.60;99.90;;;;;;5054382;28;20487;-74
2021/05/20 05:09:55;;;;;;;2.65;1.90;;;11.70;99.90;;;;;;5054359;28;20028;-74
2021/05/20 05:12:21;;;;;;;3.60;2.10;;;11.70;99.90;;;;;;5054359;28;20036;-73
2021/05/20 05:14:47;;;;;;;4.45;2.60;;;11.70;99.90;;;;;;5054298;28;20061;-72
2021/05/20 05:17:14;;;;;;;3.83;2.38;;;11.80;99.90;;;;;;5054152;28;20024;-73
2021/05/20 05:19:40;;;;;;;4.78;3.30;;;11.70;99.90;;;;;;5053911;28;20451;-73
2021/05/20 05:22:06;;;;;;;5.47;2.70;;;11.70;99.90;;;;;;5054012;28;20029;-73
2021/05/20 05:24:32;;;;;;;5.03;3.50;;;11.70;99.90;;;;;;5053985;28;20021;-71
2021/05/20 05:26:59;;;;;;;5.72;3.47;;;11.70;99.90;;;;;;5054058;28;20033;-74
2021/05/20 05:29:26;;;;;;;2.90;2.30;;;11.80;99.90;;;;;;5053638;28;20045;-74
2021/05/20 05:31:52;;;;;;;4.93;3.15;;;11.80;99.90;;;;;;5053806;28;20048;-74
2021/05/20 05:34:19;;;;;;;5.15;3.20;;;11.90;99.90;;;;;;5054424;28;20021;-71
2021/05/20 05:36:47;;;;;;;3.70;2.50;;;12.10;99.90;;;;;;5053867;28;20025;-74
2021/05/20 05:39:13;;;;;;;3.65;2.67;;;12.00;99.90;;;;;;5054277;28;20044;-74
2021/05/20 05:41:40;;;;;;;2.65;1.90;;;12.10;99.90;;;;;;5054076;28;20021;-73
2021/05/20 05:44:06;;;;;;;2.28;1.70;;;12.10;99.90;;;;;;5053877;28;20471;-73
2021/05/20 05:46:33;;;;;;;3.03;1.90;;;12.20;99.90;;;;;;5053738;28;20025;-74
2021/05/20 05:49:09;;;;;;;3.88;2.72;;;12.20;99.90;;;;;;5053377;28;20028;-72
2021/05/20 05:51:37;;;;;;;2.25;1.80;;;12.20;99.90;;;;;;5053739;28;20383;-74
2021/05/20 05:54:04;;;;;;;2.53;1.98;;;12.00;99.90;;;;;;5053769;28;20036;-74
2021/05/20 05:56:30;;;;;;;4.82;3.17;;;11.90;99.90;;;;;;5053486;28;20023;-75
2021/05/20 05:58:56;;;;;;;10.93;7.82;;;11.80;99.90;;;;;;5053509;28;20055;-74
2021/05/20 06:01:22;;;;;;;9.40;6.93;;;11.80;99.90;;;;;;5051938;28;20041;-75
2021/05/20 06:03:48;;;;;;;9.23;6.38;;;11.90;99.90;;;;;;5053340;28;20028;-71
2021/05/20 06:06:14;;;;;;;5.40;4.88;;;12.00;99.90;;;;;;5053299;28;20021;-73
2021/05/20 06:08:40;;;;;;;5.07;3.92;;;11.80;99.90;;;;;;5053465;28;20056;-71
2021/05/20 06:11:06;;;;;;;3.70;2.90;;;11.90;99.90;;;;;;5053266;28;20032;-74
2021/05/20 06:13:32;;;;;;;8.85;6.53;;;11.90;99.90;;;;;;5052097;28;20021;-73
2021/05/20 06:15:58;;;;;;;7.40;5.50;;;12.00;99.90;;;;;;5066715;28;20028;-71
2021/05/20 06:18:24;;;;;;;9.93;7.55;;;11.80;99.90;;;;;;5071090;28;20037;-70
2021/05/20 06:20:50;;;;;;;11.15;8.40;;;11.90;99.90;;;;;;5070940;28;20028;-71
2021/05/20 06:23:16;;;;;;;6.65;5.10;;;11.80;99.90;;;;;;5070791;28;20021;-72
2021/05/20 06:25:45;;;;;;;8.13;6.45;;;11.80;99.90;;;;;;5071182;28;20067;-71
2021/05/20 06:28:11;;;;;;;5.93;5.32;;;11.70;99.90;;;;;;5070912;28;20049;-72
2021/05/20 06:30:37;;;;;;;6.10;4.30;;;12.00;99.90;;;;;;5071113;28;20028;-72
2021/05/20 06:33:03;;;;;;;6.40;4.72;;;11.70;99.90;;;;;;5076561;28;20042;-74
2021/05/20 06:35:30;;;;;;;4.25;2.97;;;11.80;99.90;;;;;;5077315;28;20024;-75
2021/05/20 06:37:55;;;;;;;8.90;6.47;;;11.80;99.90;;;;;;5077202;28;20054;-72
2021/05/20 06:40:21;;;;;;;8.27;5.65;;;11.90;99.90;;;;;;5077231;28;20020;-76
2021/05/20 06:42:47;;;;;;;7.55;4.43;;;11.90;99.90;;;;;;5077110;28;20029;-71
2021/05/20 06:45:14;;;;;;;8.98;7.68;;;11.90;99.90;;;;;;5077098;28;20027;-71
2021/05/20 06:47:40;;;;;;;7.28;5.00;;;12.00;99.90;;;;;;5077031;28;20501;-71
2021/05/20 06:50:07;;;;;;;6.30;4.25;;;11.90;99.90;;;;;;5077119;28;20419;-74
2021/05/20 06:52:33;;;;;;;4.85;3.67;;;11.90;99.90;;;;;;5075414;28;20024;-75
2021/05/20 06:54:59;;;;;;;5.25;4.07;;;11.90;99.90;;;;;;5077241;28;20474;-71
2021/05/20 06:59:56;;;;;;;8.45;4.55;;;12.00;99.90;;;;;;5076838;28;20017;-75
2021/05/20 07:00:15;;;;;;;5.85;4.10;;;12.00;99.90;;;;;;5076756;28;20039;-76
2021/05/20 07:02:41;;;;;;;7.28;5.50;;;12.00;99.90;;;;;;5077097;28;20050;-75
2021/05/20 07:05:07;;;;;;;7.50;4.75;;;12.00;99.90;;;;;;5076767;28;20028;-71
2021/05/20 07:07:38;;;;;;;5.07;3.65;;;12.20;99.90;;;;;;5076561;28;20027;-75
2021/05/20 07:10:05;;;;;;;3.97;3.10;;;12.10;99.90;;;;;;5076975;28;20020;-71
2021/05/20 07:12:31;;;;;;;7.45;4.95;;;12.10;99.90;;;;;;5076682;28;20466;-75
2021/05/20 07:14:58;;;;;;;17.60;9.80;;;12.20;99.90;;;;;;5076547;28;20402;-72
2021/05/20 07:17:24;;;;;;;15.25;9.88;;;12.30;99.90;;;;;;5076613;28;20025;-74
2021/05/20 07:19:50;;;;;;;12.52;7.90;;;12.30;99.90;;;;;;5076286;28;20099;-72
2021/05/20 07:22:16;;;;;;;10.95;6.82;;;12.30;99.90;;;;;;5075041;28;20116;-75
2021/05/20 07:24:44;;;;;;;8.32;5.13;;;12.40;99.90;;;;;;5076023;28;20025;-73
2021/05/20 07:27:10;;;;;;;11.98;7.68;;;12.50;99.90;;;;;;5076332;28;20047;-73
2021/05/20 07:29:36;;;;;;;5.95;3.70;;;12.50;99.90;;;;;;5075811;28;20052;-76
2021/05/20 07:32:03;;;;;;;6.13;3.55;;;12.60;99.90;;;;;;5075992;28;20060;-71
2021/05/20 07:34:32;;;;;;;9.32;6.60;;;12.70;99.90;;;;;;5064132;28;20023;-73
2021/05/20 07:36:58;;;;;;;8.25;6.30;;;12.80;99.90;;;;;;5065827;28;20445;-71
2021/05/20 07:39:24;;;;;;;18.20;11.50;;;12.90;99.90;;;;;;5064902;28;20755;-74
2021/05/20 07:41:50;;;;;;;7.53;4.80;;;12.80;99.90;;;;;;5062513;28;20426;-72
2021/05/20 07:44:16;;;;;;;19.73;11.68;;;12.70;99.90;;;;;;5063057;28;20605;-74
2021/05/20 07:46:42;;;;;;;10.70;7.20;;;12.80;99.90;;;;;;5064418;28;20510;-71
2021/05/20 07:49:08;;;;;;;4.38;3.40;;;12.80;99.90;;;;;;5066584;28;20029;-72
2021/05/20 07:51:34;;;;;;;5.18;3.60;;;12.70;99.90;;;;;;5063479;28;20146;-72
2021/05/20 07:54:00;;;;;;;5.10;3.60;;;12.80;99.90;;;;;;5066485;28;20063;-74
2021/05/20 07:56:26;;;;;;;8.80;6.07;;;12.80;99.90;;;;;;5075855;28;20493;-74
2021/05/20 07:58:53;;;;;;;28.73;14.77;;;12.80;99.90;;;;;;5075723;28;20016;-73
2021/05/20 08:01:20;;;;;;;21.25;11.75;;;12.90;99.90;;;;;;5075632;28;20458;-70
2021/05/20 08:03:53;;;;;;;11.68;6.40;;;13.00;99.90;;;;;;5075529;28;20044;-73
2021/05/20 08:06:25;;;;;;;4.57;3.35;;;13.10;99.90;;;;;;5075759;28;20473;-73
2021/05/20 08:08:57;;;;;;;4.13;2.70;;;13.10;99.90;;;;;;5075461;28;20421;-74
2021/05/20 08:11:23;;;;;;;7.20;3.28;;;13.00;99.90;;;;;;5075708;28;20115;-74
2021/05/20 08:13:49;;;;;;;4.40;3.30;;;13.00;99.90;;;;;;5075764;28;20103;-70
2021/05/20 08:16:15;;;;;;;6.63;4.88;;;13.00;99.90;;;;;;5069942;28;20031;-72
2021/05/20 08:18:41;;;;;;;9.38;8.30;;;12.90;99.90;;;;;;5064945;28;20163;-70
2021/05/20 08:21:08;;;;;;;18.42;16.55;;;12.90;99.90;;;;;;5078768;28;20021;-73
2021/05/20 08:23:34;;;;;;;5.95;4.80;;;13.00;99.90;;;;;;5063949;28;20477;-74
2021/05/20 08:26:02;;;;;;;6.40;5.80;;;13.00;99.90;;;;;;5064847;28;20033;-70
2021/05/20 08:28:28;;;;;;;18.80;16.95;;;13.00;99.90;;;;;;5068768;28;20055;-72
2021/05/20 08:30:54;;;;;;;15.00;13.60;;;13.20;99.90;;;;;;5061216;28;20070;-71
2021/05/20 08:33:20;;;;;;;17.20;15.27;;;13.20;99.90;;;;;;5064475;28;20021;-72
2021/05/20 08:35:47;;;;;;;9.73;3.65;;;13.10;99.90;;;;;;5063935;28;20023;-74
2021/05/20 08:38:14;;;;;;;4.28;2.85;;;13.10;99.90;;;;;;5054658;28;20674;-75
2021/05/20 08:40:43;;;;;;;7.88;6.20;;;13.10;99.90;;;;;;5053351;28;20021;-70
2021/05/20 08:43:09;;;;;;;6.82;4.55;;;13.10;99.90;;;;;;5053276;28;20429;-71
2021/05/20 08:45:37;;;;;;;7.65;5.60;;;12.90;99.90;;;;;;5054526;28;20475;-73
2021/05/20 08:48:03;;;;;;;7.07;5.38;;;12.90;99.90;;;;;;5054589;28;20375;-75
2021/05/20 08:50:31;;;;;;;11.57;8.07;;;13.00;99.90;;;;;;5054162;28;20051;-73
2021/05/20 08:52:57;;;;;;;7.78;5.72;;;13.00;99.90;;;;;;5054752;28;20032;-74
2021/05/20 08:55:35;;;;;;;10.32;6.88;;;13.00;99.90;;;;;;5052547;28;20060;-74
2021/05/20 08:58:02;;;;;;;10.00;7.22;;;13.30;99.90;;;;;;5054299;28;20032;-75
2021/05/20 09:00:29;;;;;;;6.75;4.80;;;13.50;99.90;;;;;;5059855;28;20056;-74
2021/05/20 09:03:06;;;;;;;6.70;5.10;;;13.60;99.90;;;;;;5074141;28;20405;-76
2021/05/20 09:05:32;;;;;;;4.95;4.00;;;13.90;99.90;;;;;;5074109;28;20095;-75
2021/05/20 09:08:01;;;;;;;7.53;6.60;;;13.70;99.90;;;;;;5074113;28;20059;-75
2021/05/20 09:10:32;;;;;;;5.47;4.32;;;13.80;99.90;;;;;;5072652;28;20020;-79
2021/05/20 09:12:59;;;;;;;3.45;2.50;;;13.90;99.90;;;;;;5071921;28;20056;-78
2021/05/20 09:15:34;;;;;;;3.92;2.50;;;13.70;99.90;;;;;;5071838;28;20024;-75
2021/05/20 09:18:11;;;;;;;6.47;5.03;;;13.80;99.90;;;;;;5072483;28;20024;-72
2021/05/20 09:20:45;;;;;;;6.45;4.75;;;13.80;99.90;;;;;;5071041;28;20028;-72
2021/05/20 09:23:21;;;;;;;11.40;6.95;;;13.60;99.90;;;;;;5072944;28;20020;-72
2021/05/20 09:25:49;;;;;;;15.38;11.43;;;13.60;99.90;;;;;;5071813;28;20063;-73
2021/05/20 09:28:17;;;;;;;11.18;7.32;;;13.40;99.90;;;;;;5072332;28;20040;-75
2021/05/20 09:30:44;;;;;;;11.82;8.60;;;13.30;99.90;;;;;;5072444;28;20024;-74
2021/05/20 09:33:14;;;;;;;11.77;8.73;;;13.20;99.90;;;;;;5073251;28;20398;-75
2021/05/20 09:35:44;;;;;;;6.68;5.43;;;13.20;99.90;;;;;;5072864;28;20024;-75
2021/05/20 09:38:17;;;;;;;6.68;5.18;;;13.00;99.90;;;;;;5072555;28;20035;-76
2021/05/20 09:40:54;;;;;;;7.22;5.80;;;13.00;99.90;;;;;;5072543;28;20094;-75
2021/05/20 09:43:24;;;;;;;10.50;7.88;;;12.90;99.90;;;;;;5058485;28;20374;-70
2021/05/20 09:45:54;;;;;;;11.18;8.73;;;12.80;99.90;;;;;;5063334;28;20016;-75
2021/05/20 09:48:25;;;;;;;10.30;7.15;;;12.80;99.90;;;;;;5063015;28;20075;-74
2021/05/20 09:50:54;;;;;;;8.63;6.72;;;12.80;99.90;;;;;;5063501;28;20060;-71
2021/05/20 09:53:25;;;;;;;9.40;6.65;;;12.80;99.90;;;;;;5057456;28;20070;-70
2021/05/20 09:55:56;;;;;;;9.43;7.82;;;12.60;99.90;;;;;;5073354;28;20031;-75
2021/05/20 09:58:32;;;;;;;8.90;7.03;;;12.60;99.90;;;;;;5073417;28;20028;-75
2021/05/20 10:01:00;;;;;;;11.52;9.75;;;12.60;99.90;;;;;;5073364;28;20028;-74
2021/05/20 10:03:27;;;;;;;10.80;8.38;;;12.50;99.90;;;;;;5072014;28;20028;-74
2021/05/20 10:06:01;;;;;;;10.15;7.18;;;12.50;99.90;;;;;;5071354;28;20025;-75
2021/05/20 10:08:32;;;;;;;7.95;6.65;;;12.50;99.90;;;;;;5073545;28;20036;-76
2021/05/20 10:11:02;;;;;;;6.85;5.13;;;12.60;99.90;;;;;;5073402;28;20485;-71
2021/05/20 10:13:29;;;;;;;8.85;6.10;;;12.50;99.90;;;;;;5073382;28;20058;-74
2021/05/20 10:15:56;;;;;;;10.85;7.80;;;12.40;99.90;;;;;;5073644;28;20020;-75
2021/05/20 10:18:28;;;;;;;7.38;5.85;;;12.40;99.90;;;;;;5073469;28;20494;-72
2021/05/20 10:21:04;;;;;;;9.85;7.60;;;12.40;99.90;;;;;;5072521;28;20101;-73
2021/05/20 10:23:30;;;;;;;6.20;4.97;;;12.30;99.90;;;;;;5073248;28;20025;-77
2021/05/20 10:25:59;;;;;;;5.60;4.47;;;12.30;99.90;;;;;;5073200;28;20482;-71
2021/05/20 10:28:25;;;;;;;7.65;5.78;;;12.30;99.90;;;;;;5072950;28;20060;-74
2021/05/20 10:30:53;;;;;;;6.72;5.38;;;12.30;99.90;;;;;;5073281;28;20032;-75
2021/05/20 10:33:26;;;;;;;6.20;5.35;;;12.20;99.90;;;;;;5073320;28;20034;-74
2021/05/20 10:35:53;;;;;;;7.70;5.53;;;12.30;99.90;;;;;;5073430;28;20024;-77
2021/05/20 10:38:29;;;;;;;7.13;6.00;;;12.40;99.90;;;;;;5073495;28;20063;-76
2021/05/20 10:41:13;;;;;;;9.75;7.50;;;12.30;99.90;;;;;;5073539;28;20017;-72
2021/05/20 10:43:42;;;;;;;8.65;7.07;;;12.30;99.90;;;;;;5072012;28;20074;-71
2021/05/20 10:46:13;;;;;;;9.52;7.88;;;12.50;99.90;;;;;;5071574;28;20051;-73
2021/05/20 10:49:17;;;;;;;9.93;7.88;;;12.30;99.90;;;;;;5073083;28;20033;-74
2021/05/20 10:51:44;;;;;;;24.85;16.20;;;12.30;99.90;;;;;;5071711;28;20032;-73
2021/05/20 10:54:13;;;;;;;22.98;14.68;;;12.20;99.90;;;;;;5072957;28;20115;-77
2021/05/20 10:56:39;;;;;;;20.42;11.95;;;12.30;99.90;;;;;;5072796;28;20024;-74
2021/05/20 10:59:36;;;;;;;21.73;12.90;;;12.20;99.90;;;;;;5073229;28;20143;-74
2021/05/20 11:02:02;;;;;;;11.52;8.98;;;12.30;99.90;;;;;;5072671;28;20039;-73
2021/05/20 11:04:38;;;;;;;17.58;11.48;;;12.30;99.90;;;;;;5073081;28;20070;-73
2021/05/20 11:07:05;;;;;;;10.57;7.32;;;12.30;99.90;;;;;;5073086;28;20028;-73
2021/05/20 11:10:09;;;;;;;7.40;5.97;;;12.20;99.90;;;;;;5073164;28;20028;-77
2021/05/20 11:12:54;;;;;;;5.60;4.22;;;12.30;99.90;;;;;;5030938;28;20183;-72
2021/05/20 11:15:20;;;;;;;9.23;6.15;;;12.10;99.90;;;;;;5030994;28;20106;-73
2021/05/20 11:17:46;;;;;;;10.65;7.30;;;12.10;99.90;;;;;;5032502;28;20379;-75
2021/05/20 11:20:24;;;;;;;7.85;5.78;;;12.10;99.90;;;;;;5034843;28;20021;-75
2021/05/20 11:23:23;;;;;;;10.13;6.68;;;12.20;99.90;;;;;;5034414;28;20044;-74
2021/05/20 11:26:13;;;;;;;8.65;6.50;;;12.10;99.90;;;;;;5034484;28;20124;-74
2021/05/20 11:28:50;;;;;;;9.45;6.72;;;12.10;99.90;;;;;;5034216;28;20053;-72
2021/05/20 11:31:17;;;;;;;10.48;6.65;;;12.00;99.90;;;;;;5034872;28;20029;-73
2021/05/20 11:33:55;;;;;;;9.70;6.90;;;12.00;99.90;;;;;;5017701;28;20112;-72
2021/05/20 11:36:21;;;;;;;10.05;7.45;;;12.10;99.90;;;;;;5034213;28;20427;-74
2021/05/20 11:38:59;;;;;;;12.25;8.90;;;12.10;99.90;;;;;;5034084;28;20028;-74
2021/05/20 11:41:26;;;;;;;8.20;6.68;;;12.00;99.90;;;;;;5034254;28;20042;-74
2021/05/20 11:44:03;;;;;;;14.98;9.60;;;11.90;99.90;;;;;;5034717;28;20022;-74
2021/05/20 11:46:29;;;;;;;12.38;8.88;;;12.10;99.90;;;;;;5034195;28;20025;-71
2021/05/20 11:49:18;;;;;;;15.50;9.52;;;12.00;99.90;;;;;;5048458;28;20037;-70
2021/05/20 11:51:50;;;;;;;11.15;8.18;;;11.90;99.90;;;;;;5055753;28;20029;-71
2021/05/20 11:54:18;;;;;;;13.68;9.55;;;12.00;99.90;;;;;;5055659;28;20025;-71
2021/05/20 11:56:51;;;;;;;13.45;10.00;;;12.00;99.90;;;;;;5055944;28;20457;-71
2021/05/20 11:59:33;;;;;;;12.63;9.05;;;12.00;99.90;;;;;;5055457;28;20029;-72
2021/05/20 12:02:00;;;;;;;24.70;15.63;;;12.00;99.90;;;;;;5055690;28;20025;-73
2021/05/20 12:04:27;;;;;;;20.15;14.55;;;12.00;99.90;;;;;;5040737;28;20021;-72
2021/05/20 12:06:54;;;;;;;14.35;10.63;;;12.00;99.90;;;;;;5035661;28;20112;-72
2021/05/20 12:09:20;;;;;;;18.30;13.45;;;11.90;99.90;;;;;;5035391;28;20080;-74
2021/05/20 12:12:01;;;;;;;12.43;10.23;;;11.80;99.90;;;;;;5035213;28;20044;-73
2021/05/20 12:14:57;;;;;;;9.23;8.20;;;11.80;99.90;;;;;;5034891;28;20079;-72
2021/05/20 12:17:25;;;;;;;11.52;10.05;;;11.70;99.90;;;;;;5031900;28;20041;-72
2021/05/20 12:19:54;;;;;;;10.88;8.73;;;11.60;99.90;;;;;;5033256;28;20024;-72
2021/05/20 12:22:27;;;;;;;12.13;10.00;;;11.70;99.90;;;;;;5033131;28;20022;-71
2021/05/20 12:24:59;;;;;;;12.75;9.70;;;11.70;99.90;;;;;;5033180;28;20061;-71
2021/05/20 12:27:40;;;;;;;10.65;9.07;;;11.70;99.90;;;;;;5033052;28;20060;-72
2021/05/20 12:30:34;;;;;;;10.55;9.27;;;11.70;99.90;;;;;;5052231;28;20029;-71
2021/05/20 12:33:03;;;;;;;17.50;12.95;;;11.70;99.90;;;;;;5054922;28;20044;-71
2021/05/20 12:35:31;;;;;;;23.20;15.50;;;11.60;99.90;;;;;;5054862;28;20025;-73
2021/05/20 12:38:15;;;;;;;14.23;11.18;;;11.80;99.90;;;;;;5053754;28;20021;-73
2021/05/20 12:40:53;;;;;;;11.60;7.97;;;11.60;99.90;;;;;;5055098;28;20028;-74
2021/05/20 12:43:31;;;;;;;20.50;13.18;;;11.60;99.90;;;;;;5054284;28;20025;-77
2021/05/20 12:45:59;;;;;;;11.73;8.68;;;11.60;99.90;;;;;;5053301;28;20135;-72
2021/05/20 12:48:30;;;;;;;10.82;9.35;;;11.50;99.90;;;;;;5054580;28;20550;-70
2021/05/20 12:51:06;;;;;;;10.05;8.43;;;11.50;99.90;;;;;;5053201;28;20029;-72